TN26 weather

CLOSED Baptist Hospital Heliport
Memphis, Tennessee, United States

Public forecast

Using degrees Fahrenheit for public forecast. Weather courtesy of forecast.io.

Closest aviation weather report (METAR) to Baptist Hospital Heliport

Closest report is Memphis International Airport, 6.4 nm (11.8 km) SSE. Retrieved 2019/10/16 03:40 UTC (0 seconds ago):

KMEM 160340Z 21006KT 10SM BKN008 OVC011 20/19 A2988 RMK AO2 T02000194

Closest aviation forecast (TAF) to Baptist Hospital Heliport

Closest forecast is Memphis International Airport, 6.4 nm (11.8 km) SSE. Retrieved 2019-10-16 04:00 UTC (0 seconds ago):

TAF COR KMEM 160359Z 1604/1706 21006KT P6SM VCSH SCT006 OVC011 TEMPO 1604/1605 BKN006 FM160500 35012G20KT P6SM VCSH BKN025 BKN050 FM161200 36012KT P6SM SKC FM162100 33007KT P6SM SKC